N16SA RJAA-KRIC
Flight info
| Callsign | N16SA |
|---|---|
| Flight time | N/A |
| Altitude | 47000 |
| Route | KIMIN Y117 JYONA Y11 NAVER Y139 ASIBE Y116 AWE Y114 ANIMO/K0922F470 T565 PAKLI A956 UMOLA T564 RUSOR/N0509F470 B241 ROCET R338 OME J122 GAL NCA19 CHAPO DCT 63N130W DCT YFS DCT YFS J521 YSM DCT PETMA DCT PETMA Q963 YVC Q919 KENRU Q906 OTLUR Q834 DLH J89 BAE J34 DJB J162 AIR J34 BUCKO DCT CCHIP DCT MOL SPIDR5 |
| Aircraft | GLF6/M-SBDE2E3FGHIJ4J5M1RWXY/LB1D1 |
Departure
| Time | N/A |
|---|---|
| Airport | Narita International Airport (RJAA) |
Arrival
| Time | 2026-04-26 13:55 |
|---|---|
| Airport | Richmond International Airport (KRIC) |
| Time | Latitude | Longitude | Altitude | Speed | Heading |
|---|---|---|---|---|---|
| 2026-04-26 12:33 | 42.88561 | -86.27133 | 47140 ft | 519 kts | 99° |
| 2026-04-26 12:34 | 42.87963 | -86.22321 | 47147 ft | 519 kts | 99° |
| 2026-04-26 12:34 | 42.86751 | -86.12624 | 47151 ft | 520 kts | 99° |
| 2026-04-26 12:35 | 42.85534 | -86.02956 | 47147 ft | 519 kts | 99° |
| 2026-04-26 12:35 | 42.84294 | -85.93179 | 47149 ft | 530 kts | 99° |
| 2026-04-26 12:36 | 42.83027 | -85.83273 | 47158 ft | 534 kts | 99° |
| 2026-04-26 12:36 | 42.81741 | -85.73279 | 47169 ft | 535 kts | 99° |
| 2026-04-26 12:37 | 42.80452 | -85.63345 | 47179 ft | 535 kts | 99° |
| 2026-04-26 12:37 | 42.79151 | -85.53374 | 47171 ft | 534 kts | 99° |
| 2026-04-26 12:37 | 42.78193 | -85.48548 | 47165 ft | 533 kts | 111° |
| 2026-04-26 12:38 | 42.76652 | -85.43951 | 47183 ft | 533 kts | 115° |
| 2026-04-26 12:38 | 42.73471 | -85.34860 | 47158 ft | 535 kts | 115° |
| 2026-04-26 12:39 | 42.70277 | -85.25774 | 47165 ft | 535 kts | 115° |
| 2026-04-26 12:39 | 42.67059 | -85.16647 | 47164 ft | 535 kts | 115° |
| 2026-04-26 12:40 | 42.63856 | -85.07599 | 47172 ft | 535 kts | 115° |
| 2026-04-26 12:40 | 42.60650 | -84.98570 | 47172 ft | 534 kts | 115° |
| 2026-04-26 12:41 | 42.57416 | -84.89490 | 47180 ft | 534 kts | 115° |
| 2026-04-26 12:41 | 42.54194 | -84.80473 | 47182 ft | 534 kts | 115° |
| 2026-04-26 12:42 | 42.50957 | -84.71445 | 47181 ft | 535 kts | 115° |
| 2026-04-26 12:42 | 42.47708 | -84.62413 | 47184 ft | 534 kts | 115° |
| 2026-04-26 12:43 | 42.44458 | -84.53407 | 47178 ft | 535 kts | 115° |
| 2026-04-26 12:43 | 42.41198 | -84.44400 | 47185 ft | 535 kts | 115° |
| 2026-04-26 12:44 | 42.37937 | -84.35422 | 47179 ft | 534 kts | 115° |
| 2026-04-26 12:44 | 42.34687 | -84.26502 | 47169 ft | 533 kts | 116° |
| 2026-04-26 12:45 | 42.31403 | -84.17519 | 47160 ft | 533 kts | 116° |
| 2026-04-26 12:45 | 42.28111 | -84.08540 | 47167 ft | 533 kts | 116° |
| 2026-04-26 12:46 | 42.24822 | -83.99600 | 47167 ft | 533 kts | 116° |
| 2026-04-26 12:46 | 42.21527 | -83.90670 | 47177 ft | 534 kts | 116° |
| 2026-04-26 12:47 | 42.18195 | -83.81668 | 47175 ft | 534 kts | 116° |
| 2026-04-26 12:47 | 42.14874 | -83.72723 | 47174 ft | 533 kts | 116° |
| 2026-04-26 12:48 | 42.11550 | -83.63801 | 47181 ft | 533 kts | 116° |
| 2026-04-26 12:48 | 42.08224 | -83.54898 | 47181 ft | 533 kts | 116° |
| 2026-04-26 12:49 | 42.04863 | -83.46053 | 47168 ft | 532 kts | 120° |
| 2026-04-26 12:49 | 42.00662 | -83.37838 | 47171 ft | 533 kts | 124° |
| 2026-04-26 12:50 | 41.96395 | -83.29683 | 47181 ft | 533 kts | 125° |
| 2026-04-26 12:50 | 41.92134 | -83.21561 | 47177 ft | 533 kts | 125° |
| 2026-04-26 12:51 | 41.87844 | -83.13407 | 47177 ft | 534 kts | 125° |
| 2026-04-26 12:51 | 41.83578 | -83.05320 | 47161 ft | 534 kts | 126° |
| 2026-04-26 12:52 | 41.79283 | -82.97201 | 47156 ft | 534 kts | 126° |
| 2026-04-26 12:52 | 41.74993 | -82.89111 | 47161 ft | 533 kts | 126° |
| 2026-04-26 12:53 | 41.70683 | -82.81005 | 47161 ft | 533 kts | 125° |
| 2026-04-26 12:53 | 41.66381 | -82.72938 | 47160 ft | 533 kts | 126° |
| 2026-04-26 12:54 | 41.62081 | -82.64896 | 47162 ft | 534 kts | 126° |
| 2026-04-26 12:54 | 41.57763 | -82.56843 | 47162 ft | 534 kts | 126° |
| 2026-04-26 12:55 | 41.53430 | -82.48782 | 47152 ft | 534 kts | 126° |
| 2026-04-26 12:55 | 41.49114 | -82.40773 | 47155 ft | 534 kts | 126° |
| 2026-04-26 12:56 | 41.44771 | -82.32735 | 47155 ft | 534 kts | 126° |
| 2026-04-26 12:56 | 41.40394 | -82.24656 | 47157 ft | 534 kts | 126° |
| 2026-04-26 12:57 | 41.35973 | -82.16775 | 47140 ft | 532 kts | 134° |
| 2026-04-26 12:57 | 41.30306 | -82.10553 | 47138 ft | 531 kts | 143° |
| 2026-04-26 12:58 | 41.21518 | -82.01542 | 47141 ft | 532 kts | 143° |
| 2026-04-26 12:58 | 41.15697 | -81.95591 | 47131 ft | 532 kts | 143° |
| 2026-04-26 12:59 | 41.09824 | -81.89600 | 47125 ft | 533 kts | 143° |
| 2026-04-26 12:59 | 41.03937 | -81.83609 | 47125 ft | 533 kts | 143° |
| 2026-04-26 13:00 | 40.98059 | -81.77641 | 47129 ft | 533 kts | 143° |
| 2026-04-26 13:00 | 40.92207 | -81.71713 | 47131 ft | 533 kts | 143° |
| 2026-04-26 13:01 | 40.86301 | -81.65746 | 47124 ft | 533 kts | 143° |
| 2026-04-26 13:01 | 40.80428 | -81.59824 | 47121 ft | 534 kts | 144° |
| 2026-04-26 13:02 | 40.74527 | -81.53889 | 47118 ft | 534 kts | 144° |
| 2026-04-26 13:02 | 40.68612 | -81.47954 | 47114 ft | 535 kts | 144° |
| 2026-04-26 13:03 | 40.62685 | -81.42018 | 47112 ft | 534 kts | 144° |
| 2026-04-26 13:03 | 40.56793 | -81.36134 | 47109 ft | 535 kts | 144° |
| 2026-04-26 13:04 | 40.50889 | -81.30248 | 47102 ft | 535 kts | 144° |
| 2026-04-26 13:04 | 40.44966 | -81.24358 | 47100 ft | 535 kts | 144° |
| 2026-04-26 13:05 | 40.39044 | -81.18481 | 47099 ft | 535 kts | 144° |
| 2026-04-26 13:05 | 40.33072 | -81.12569 | 47103 ft | 536 kts | 144° |
| 2026-04-26 13:06 | 40.27115 | -81.06686 | 47103 ft | 536 kts | 144° |
| 2026-04-26 13:06 | 40.21146 | -81.00803 | 47094 ft | 536 kts | 144° |
| 2026-04-26 13:07 | 40.15204 | -80.94960 | 47089 ft | 535 kts | 145° |
| 2026-04-26 13:07 | 40.09236 | -80.89105 | 47088 ft | 536 kts | 144° |
| 2026-04-26 13:08 | 40.03244 | -80.83239 | 47089 ft | 537 kts | 144° |
| 2026-04-26 13:08 | 39.97919 | -80.76474 | 47090 ft | 540 kts | 134° |
| 2026-04-26 13:09 | 39.92795 | -80.69339 | 47082 ft | 540 kts | 134° |
| 2026-04-26 13:09 | 39.87653 | -80.62204 | 47080 ft | 541 kts | 134° |
| 2026-04-26 13:10 | 39.82460 | -80.55016 | 47073 ft | 541 kts | 134° |
| 2026-04-26 13:10 | 39.77326 | -80.47928 | 47077 ft | 541 kts | 134° |
| 2026-04-26 13:11 | 39.72129 | -80.40768 | 47071 ft | 542 kts | 134° |
| 2026-04-26 13:11 | 39.66991 | -80.33707 | 47066 ft | 542 kts | 135° |
| 2026-04-26 13:12 | 39.61790 | -80.26576 | 47073 ft | 542 kts | 135° |
| 2026-04-26 13:13 | 39.51562 | -80.12601 | 47078 ft | 542 kts | 135° |
| 2026-04-26 13:13 | 39.46379 | -80.05542 | 47075 ft | 543 kts | 135° |
| 2026-04-26 13:14 | 39.41179 | -79.98480 | 47074 ft | 543 kts | 135° |
| 2026-04-26 13:14 | 39.35970 | -79.91418 | 47069 ft | 543 kts | 135° |
| 2026-04-26 13:15 | 39.30694 | -79.84420 | 47049 ft | 540 kts | 141° |
| 2026-04-26 13:15 | 39.27638 | -79.81752 | 47088 ft | 533 kts | 155° |
| 2026-04-26 13:15 | 39.24237 | -79.79789 | 47074 ft | 532 kts | 160° |
| 2026-04-26 13:16 | 39.20836 | -79.77955 | 46835 ft | 529 kts | 160° |
| 2026-04-26 13:16 | 39.17497 | -79.76169 | 46307 ft | 520 kts | 160° |
| 2026-04-26 13:16 | 39.14180 | -79.74403 | 45749 ft | 513 kts | 160° |
| 2026-04-26 13:16 | 39.10926 | -79.72671 | 45195 ft | 508 kts | 161° |
| 2026-04-26 13:17 | 39.04470 | -79.69247 | 44112 ft | 497 kts | 160° |
| 2026-04-26 13:17 | 39.01278 | -79.67554 | 43565 ft | 493 kts | 160° |
| 2026-04-26 13:18 | 38.95016 | -79.64241 | 42488 ft | 483 kts | 160° |
| 2026-04-26 13:18 | 38.91953 | -79.62622 | 41956 ft | 479 kts | 160° |
| 2026-04-26 13:18 | 38.85871 | -79.59412 | 41059 ft | 465 kts | 160° |
| 2026-04-26 13:19 | 38.82907 | -79.57849 | 41044 ft | 461 kts | 160° |
| 2026-04-26 13:19 | 38.76874 | -79.54676 | 40578 ft | 482 kts | 160° |
| 2026-04-26 13:19 | 38.73724 | -79.53022 | 39464 ft | 491 kts | 159° |
| 2026-04-26 13:20 | 38.70583 | -79.51372 | 38441 ft | 494 kts | 159° |
| 2026-04-26 13:20 | 38.67418 | -79.49709 | 37747 ft | 488 kts | 159° |
| 2026-04-26 13:20 | 38.64294 | -79.48072 | 37169 ft | 480 kts | 159° |
| 2026-04-26 13:20 | 38.61252 | -79.46478 | 36636 ft | 472 kts | 159° |
| 2026-04-26 13:21 | 38.58225 | -79.44895 | 36135 ft | 466 kts | 159° |
| 2026-04-26 13:21 | 38.55239 | -79.43336 | 35653 ft | 467 kts | 159° |
| 2026-04-26 13:21 | 38.52246 | -79.41773 | 35151 ft | 470 kts | 159° |
| 2026-04-26 13:21 | 38.49233 | -79.40201 | 34637 ft | 472 kts | 159° |
| 2026-04-26 13:22 | 38.46166 | -79.38602 | 34045 ft | 472 kts | 159° |
| 2026-04-26 13:22 | 38.43123 | -79.37018 | 33490 ft | 473 kts | 159° |
| 2026-04-26 13:22 | 38.40115 | -79.35453 | 32896 ft | 476 kts | 159° |
| 2026-04-26 13:22 | 38.37032 | -79.33851 | 32350 ft | 476 kts | 160° |
| 2026-04-26 13:23 | 38.33943 | -79.32247 | 31818 ft | 478 kts | 160° |
| 2026-04-26 13:23 | 38.30902 | -79.30669 | 31294 ft | 479 kts | 159° |
| 2026-04-26 13:23 | 38.27790 | -79.29055 | 30760 ft | 481 kts | 159° |
| 2026-04-26 13:23 | 38.24701 | -79.27456 | 30228 ft | 481 kts | 159° |
| 2026-04-26 13:24 | 38.21626 | -79.25864 | 29701 ft | 476 kts | 159° |
| 2026-04-26 13:24 | 38.18600 | -79.24300 | 29175 ft | 471 kts | 159° |
| 2026-04-26 13:24 | 38.15575 | -79.22737 | 28659 ft | 467 kts | 159° |
| 2026-04-26 13:24 | 38.12574 | -79.21189 | 28147 ft | 465 kts | 159° |
| 2026-04-26 13:25 | 38.09585 | -79.19649 | 27637 ft | 460 kts | 159° |
| 2026-04-26 13:25 | 38.06662 | -79.18143 | 27129 ft | 457 kts | 159° |
| 2026-04-26 13:25 | 38.03697 | -79.16616 | 26615 ft | 454 kts | 159° |
| 2026-04-26 13:25 | 38.00789 | -79.15122 | 26126 ft | 451 kts | 159° |
| 2026-04-26 13:26 | 37.97923 | -79.13650 | 25630 ft | 448 kts | 158° |
| 2026-04-26 13:26 | 37.95023 | -79.12161 | 25133 ft | 444 kts | 159° |
| 2026-04-26 13:26 | 37.92092 | -79.11093 | 24652 ft | 440 kts | 168° |
| 2026-04-26 13:26 | 37.89230 | -79.09773 | 24148 ft | 439 kts | 152° |
| 2026-04-26 13:27 | 37.86821 | -79.07453 | 23720 ft | 435 kts | 134° |
| 2026-04-26 13:27 | 37.85092 | -79.04375 | 23329 ft | 431 kts | 116° |
| 2026-04-26 13:27 | 37.84171 | -79.00771 | 22908 ft | 426 kts | 98° |
| 2026-04-26 13:27 | 37.84158 | -78.97098 | 22462 ft | 418 kts | 79° |
| 2026-04-26 13:28 | 37.84793 | -78.93566 | 22039 ft | 413 kts | 76° |
| 2026-04-26 13:28 | 37.84979 | -78.89955 | 21600 ft | 413 kts | 91° |
| 2026-04-26 13:28 | 37.84568 | -78.86375 | 21168 ft | 411 kts | 99° |
| 2026-04-26 13:28 | 37.83948 | -78.82883 | 20718 ft | 409 kts | 101° |
| 2026-04-26 13:29 | 37.83250 | -78.79419 | 20272 ft | 406 kts | 102° |
| 2026-04-26 13:29 | 37.82534 | -78.75990 | 19828 ft | 403 kts | 102° |
| 2026-04-26 13:29 | 37.81829 | -78.72591 | 19380 ft | 401 kts | 102° |
| 2026-04-26 13:29 | 37.81119 | -78.69206 | 18946 ft | 398 kts | 102° |
| 2026-04-26 13:30 | 37.80414 | -78.65856 | 18517 ft | 394 kts | 102° |
| 2026-04-26 13:30 | 37.79710 | -78.62531 | 18075 ft | 391 kts | 101° |
| 2026-04-26 13:30 | 37.79013 | -78.59232 | 17631 ft | 388 kts | 102° |
| 2026-04-26 13:30 | 37.78321 | -78.55968 | 17210 ft | 385 kts | 101° |
| 2026-04-26 13:31 | 37.77635 | -78.52731 | 16801 ft | 382 kts | 101° |
| 2026-04-26 13:31 | 37.76944 | -78.49475 | 16383 ft | 380 kts | 101° |
| 2026-04-26 13:31 | 37.76263 | -78.46277 | 15966 ft | 377 kts | 101° |
| 2026-04-26 13:31 | 37.75589 | -78.43113 | 15554 ft | 374 kts | 101° |
| 2026-04-26 13:32 | 37.74910 | -78.39939 | 15146 ft | 371 kts | 100° |
| 2026-04-26 13:32 | 37.74243 | -78.36813 | 14734 ft | 369 kts | 100° |
| 2026-04-26 13:32 | 37.73584 | -78.33736 | 14332 ft | 367 kts | 101° |
| 2026-04-26 13:32 | 37.72918 | -78.30633 | 13925 ft | 357 kts | 101° |
| 2026-04-26 13:33 | 37.72280 | -78.27665 | 13546 ft | 345 kts | 100° |
| 2026-04-26 13:33 | 37.71665 | -78.24802 | 13158 ft | 336 kts | 100° |
| 2026-04-26 13:33 | 37.71070 | -78.21987 | 13004 ft | 332 kts | 99° |
| 2026-04-26 13:33 | 37.70496 | -78.19170 | 12946 ft | 335 kts | 99° |
| 2026-04-26 13:34 | 37.69910 | -78.16311 | 12660 ft | 336 kts | 99° |
| 2026-04-26 13:34 | 37.69329 | -78.13483 | 12301 ft | 333 kts | 99° |
| 2026-04-26 13:34 | 37.68757 | -78.10691 | 11963 ft | 330 kts | 99° |
| 2026-04-26 13:34 | 37.68425 | -78.08787 | 11401 ft | 334 kts | 97° |
| 2026-04-26 13:35 | 37.67810 | -78.04995 | 10553 ft | 330 kts | 97° |
| 2026-04-26 13:35 | 37.67349 | -78.02193 | 10140 ft | 321 kts | 97° |
| 2026-04-26 13:35 | 37.66900 | -77.99476 | 9776 ft | 312 kts | 97° |
| 2026-04-26 13:35 | 37.66465 | -77.96846 | 9439 ft | 303 kts | 97° |
| 2026-04-26 13:36 | 37.66037 | -77.94260 | 9096 ft | 296 kts | 97° |
| 2026-04-26 13:36 | 37.65624 | -77.91772 | 8779 ft | 289 kts | 97° |
| 2026-04-26 13:36 | 37.65219 | -77.89336 | 8462 ft | 283 kts | 97° |
| 2026-04-26 13:36 | 37.64812 | -77.86902 | 8162 ft | 282 kts | 99° |
| 2026-04-26 13:37 | 37.63921 | -77.84705 | 7915 ft | 292 kts | 127° |
| 2026-04-26 13:37 | 37.62412 | -77.82937 | 7390 ft | 297 kts | 137° |
| 2026-04-26 13:37 | 37.60855 | -77.81252 | 7015 ft | 293 kts | 137° |
| 2026-04-26 13:37 | 37.59331 | -77.79598 | 6680 ft | 289 kts | 137° |
| 2026-04-26 13:38 | 37.57813 | -77.77947 | 6362 ft | 286 kts | 137° |
| 2026-04-26 13:38 | 37.56321 | -77.76327 | 6046 ft | 285 kts | 137° |
| 2026-04-26 13:38 | 37.54815 | -77.74693 | 5729 ft | 283 kts | 137° |
| 2026-04-26 13:38 | 37.53329 | -77.73094 | 5422 ft | 281 kts | 136° |
| 2026-04-26 13:39 | 37.51853 | -77.71523 | 5117 ft | 279 kts | 137° |
| 2026-04-26 13:39 | 37.50359 | -77.69945 | 4809 ft | 277 kts | 136° |
| 2026-04-26 13:39 | 37.48886 | -77.68400 | 4496 ft | 275 kts | 137° |
| 2026-04-26 13:39 | 37.47414 | -77.66871 | 4189 ft | 273 kts | 137° |
| 2026-04-26 13:40 | 37.45962 | -77.65378 | 3984 ft | 270 kts | 136° |
| 2026-04-26 13:40 | 37.44490 | -77.63878 | 3964 ft | 267 kts | 137° |
| 2026-04-26 13:40 | 37.43057 | -77.62421 | 3548 ft | 269 kts | 136° |
| 2026-04-26 13:40 | 37.41587 | -77.60944 | 3158 ft | 268 kts | 137° |
| 2026-04-26 13:41 | 37.40129 | -77.59490 | 2979 ft | 264 kts | 137° |
| 2026-04-26 13:41 | 37.38739 | -77.58111 | 2969 ft | 253 kts | 136° |
| 2026-04-26 13:41 | 37.37323 | -77.56705 | 2972 ft | 252 kts | 137° |
| 2026-04-26 13:41 | 37.35985 | -77.55388 | 2964 ft | 237 kts | 136° |
| 2026-04-26 13:42 | 37.34712 | -77.54153 | 2965 ft | 226 kts | 136° |
| 2026-04-26 13:42 | 37.33479 | -77.52967 | 2972 ft | 225 kts | 136° |
| 2026-04-26 13:42 | 37.32228 | -77.51765 | 2970 ft | 225 kts | 136° |
| 2026-04-26 13:42 | 37.30980 | -77.50564 | 2976 ft | 225 kts | 136° |
| 2026-04-26 13:43 | 37.29750 | -77.49380 | 2943 ft | 223 kts | 137° |
| 2026-04-26 13:43 | 37.28511 | -77.48190 | 2666 ft | 225 kts | 137° |
| 2026-04-26 13:43 | 37.27481 | -77.46793 | 2382 ft | 213 kts | 106° |
| 2026-04-26 13:43 | 37.27217 | -77.45071 | 2363 ft | 190 kts | 90° |
| 2026-04-26 13:44 | 37.27083 | -77.43501 | 2277 ft | 174 kts | 89° |
| 2026-04-26 13:44 | 37.26949 | -77.41999 | 2049 ft | 173 kts | 89° |
| 2026-04-26 13:44 | 37.26819 | -77.40507 | 1985 ft | 172 kts | 89° |
| 2026-04-26 13:44 | 37.26687 | -77.38998 | 1977 ft | 173 kts | 89° |
| 2026-04-26 13:45 | 37.26558 | -77.37502 | 1972 ft | 173 kts | 90° |
| 2026-04-26 13:45 | 37.26430 | -77.35996 | 1971 ft | 173 kts | 89° |
| 2026-04-26 13:45 | 37.26300 | -77.34503 | 1964 ft | 174 kts | 89° |
| 2026-04-26 13:45 | 37.26170 | -77.32998 | 1964 ft | 172 kts | 90° |
| 2026-04-26 13:46 | 37.26040 | -77.31510 | 1970 ft | 172 kts | 89° |
| 2026-04-26 13:46 | 37.25909 | -77.30014 | 1970 ft | 172 kts | 90° |
| 2026-04-26 13:46 | 37.25781 | -77.28513 | 1965 ft | 173 kts | 90° |
| 2026-04-26 13:46 | 37.25652 | -77.27017 | 1959 ft | 172 kts | 90° |
| 2026-04-26 13:47 | 37.25521 | -77.25527 | 1965 ft | 171 kts | 91° |
| 2026-04-26 13:47 | 37.25391 | -77.24032 | 1962 ft | 174 kts | 89° |
| 2026-04-26 13:47 | 37.25263 | -77.22536 | 1966 ft | 174 kts | 89° |
| 2026-04-26 13:47 | 37.25221 | -77.21023 | 1950 ft | 169 kts | 71° |
| 2026-04-26 13:48 | 37.25889 | -77.19951 | 1968 ft | 159 kts | 25° |
| 2026-04-26 13:48 | 37.27009 | -77.19761 | 1961 ft | 165 kts | 0° |
| 2026-04-26 13:48 | 37.28160 | -77.19843 | 1955 ft | 163 kts | 359° |
| 2026-04-26 13:48 | 37.29298 | -77.19937 | 1968 ft | 163 kts | 0° |
| 2026-04-26 13:49 | 37.30431 | -77.20037 | 1968 ft | 163 kts | 0° |
| 2026-04-26 13:49 | 37.31576 | -77.20143 | 1971 ft | 164 kts | 360° |
| 2026-04-26 13:49 | 37.32722 | -77.20252 | 1963 ft | 164 kts | 360° |
| 2026-04-26 13:49 | 37.33856 | -77.20355 | 1966 ft | 164 kts | 360° |
| 2026-04-26 13:50 | 37.35006 | -77.20458 | 1966 ft | 164 kts | 0° |
| 2026-04-26 13:50 | 37.36153 | -77.20559 | 1969 ft | 165 kts | 360° |
| 2026-04-26 13:50 | 37.37276 | -77.20744 | 1962 ft | 165 kts | 343° |
| 2026-04-26 13:50 | 37.38193 | -77.21510 | 1987 ft | 151 kts | 331° |
| 2026-04-26 13:51 | 37.38988 | -77.22210 | 1961 ft | 132 kts | 333° |
| 2026-04-26 13:51 | 37.39780 | -77.22862 | 1981 ft | 146 kts | 334° |
| 2026-04-26 13:51 | 37.40660 | -77.23576 | 1979 ft | 152 kts | 334° |
| 2026-04-26 13:51 | 37.41547 | -77.24292 | 1981 ft | 146 kts | 334° |
| 2026-04-26 13:52 | 37.42354 | -77.24944 | 1849 ft | 132 kts | 335° |
| 2026-04-26 13:52 | 37.43111 | -77.25546 | 1688 ft | 127 kts | 335° |
| 2026-04-26 13:52 | 37.43867 | -77.26143 | 1526 ft | 129 kts | 335° |
| 2026-04-26 13:52 | 37.44626 | -77.26746 | 1358 ft | 130 kts | 334° |
| 2026-04-26 13:53 | 37.45406 | -77.27367 | 1179 ft | 131 kts | 334° |
| 2026-04-26 13:53 | 37.46175 | -77.27979 | 1002 ft | 132 kts | 333° |
| 2026-04-26 13:53 | 37.46947 | -77.28597 | 817 ft | 125 kts | 333° |
| 2026-04-26 13:53 | 37.47642 | -77.29153 | 648 ft | 117 kts | 333° |
| 2026-04-26 13:54 | 37.48336 | -77.29703 | 498 ft | 118 kts | 332° |
| 2026-04-26 13:54 | 37.49033 | -77.30259 | 317 ft | 119 kts | 332° |
| 2026-04-26 13:54 | 37.49739 | -77.30819 | 178 ft | 118 kts | 331° |
| 2026-04-26 13:55 | 37.50617 | -77.31520 | 163 ft | 33 kts | 327° |
| 2026-04-26 13:55 | 37.50732 | -77.31616 | 163 ft | 27 kts | 324° |
| 2026-04-26 13:55 | 37.50919 | -77.32027 | 164 ft | 20 kts | 287° |
| 2026-04-26 13:56 | 37.50951 | -77.32201 | 166 ft | 20 kts | 278° |
| 2026-04-26 13:56 | 37.50969 | -77.32377 | 166 ft | 20 kts | 276° |
| 2026-04-26 13:56 | 37.50984 | -77.32555 | 166 ft | 20 kts | 276° |
| 2026-04-26 13:56 | 37.50975 | -77.32733 | 166 ft | 20 kts | 256° |
| 2026-04-26 13:57 | 37.50928 | -77.32881 | 166 ft | 16 kts | 210° |
| 2026-04-26 13:57 | 37.50816 | -77.32916 | 166 ft | 17 kts | 194° |
| 2026-04-26 13:57 | 37.50695 | -77.32954 | 163 ft | 19 kts | 194° |
| 2026-04-26 13:57 | 37.50563 | -77.32993 | 162 ft | 19 kts | 194° |
| 2026-04-26 13:58 | 37.50428 | -77.33034 | 162 ft | 20 kts | 194° |
| 2026-04-26 13:58 | 37.50295 | -77.33080 | 162 ft | 18 kts | 193° |
| 2026-04-26 13:58 | 37.50167 | -77.33118 | 162 ft | 16 kts | 194° |
| 2026-04-26 13:58 | 37.50130 | -77.33226 | 162 ft | 16 kts | 283° |
| 2026-04-26 13:59 | 37.50064 | -77.33313 | 162 ft | 16 kts | 192° |
| 2026-04-26 13:59 | 37.49960 | -77.33357 | 163 ft | 14 kts | 203° |
| 2026-04-26 13:59 | 37.49876 | -77.33401 | 164 ft | 9 kts | 203° |
| 2026-04-26 14:00 | 37.49795 | -77.33450 | 165 ft | 3 kts | 237° |
| 2026-04-26 14:00 | 37.49794 | -77.33489 | 166 ft | 3 kts | 282° |
| 2026-04-26 14:00 | 37.49797 | -77.33504 | 166 ft | 0 kts | 282° |